Time;durP1;ratioP1;P1;durP2;ratioP2;P2;SDS_P1;SDS_P2;PMS_P1;PMS_P2;Temp;Humidity;BMP_temperature;BMP_pressure;BME280_temperature;BME280_humidity;BME280_pressure;Samples;Min_cycle;Max_cycle;Signal;HPM_P1;HPM_P2
2022/10/10 00:00:50;;;;;;;4.97;2.50;;;5.80;99.90;4.90;101356;;;;579359;247;24157;-77
2022/10/10 00:03:20;;;;;;;3.10;2.43;;;5.80;99.90;4.90;101346;;;;571429;248;24079;-76
2022/10/10 00:05:45;;;;;;;6.77;2.40;;;5.70;99.90;4.90;101345;;;;579052;248;24160;-77
2022/10/10 00:08:14;;;;;;;7.00;2.70;;;5.70;99.90;4.80;101343;;;;573259;248;24159;-77
2022/10/10 00:10:42;;;;;;;3.17;2.67;;;5.70;99.90;4.80;101335;;;;578789;247;25516;-78
2022/10/10 00:13:10;;;;;;;3.33;2.53;;;5.70;99.90;4.80;101326;;;;579589;247;24215;-77
2022/10/10 00:15:38;;;;;;;5.53;2.83;;;5.70;99.90;4.80;101322;;;;570181;248;24105;-80
2022/10/10 00:18:08;;;;;;;3.53;2.30;;;5.70;99.90;4.80;101324;;;;579768;247;24144;-77
2022/10/10 00:20:37;;;;;;;5.07;2.70;;;5.70;99.90;4.80;101322;;;;570421;248;24108;-80
2022/10/10 00:23:01;;;;;;;3.67;2.40;;;5.70;99.90;4.70;101327;;;;565821;248;24123;-80
2022/10/10 00:25:29;;;;;;;6.23;2.60;;;5.70;99.90;4.70;101319;;;;568289;248;24086;-81
2022/10/10 00:27:57;;;;;;;6.60;2.53;;;5.60;99.90;4.70;101326;;;;569477;248;24091;-81
2022/10/10 00:30:25;;;;;;;4.57;2.50;;;5.60;99.90;4.70;101319;;;;569971;248;24096;-79
2022/10/10 00:32:53;;;;;;;5.30;2.63;;;5.60;99.90;4.70;101313;;;;570267;248;24177;-80
2022/10/10 00:35:21;;;;;;;7.50;2.73;;;5.60;99.90;4.80;101319;;;;570716;247;24142;-78
2022/10/10 00:37:49;;;;;;;4.93;2.40;;;5.60;99.90;4.80;101320;;;;571550;247;24173;-80
2022/10/10 00:40:17;;;;;;;2.47;2.27;;;5.70;99.90;4.70;101314;;;;579930;247;24087;-79
2022/10/10 00:42:45;;;;;;;6.37;2.90;;;5.60;99.90;4.70;101318;;;;570763;247;24109;-80
2022/10/10 00:45:37;;;;;;;9.80;2.50;;;5.60;99.90;4.80;101323;;;;579208;246;24097;-79
2022/10/10 00:48:13;;;;;;;5.43;2.53;;;5.70;99.90;4.80;101325;;;;570317;247;24122;-77
2022/10/10 00:50:44;;;;;;;10.53;3.00;;;5.70;99.90;4.80;101318;;;;570426;247;24089;-77
2022/10/10 00:53:13;;;;;;;5.03;2.50;;;5.70;99.90;4.80;101328;;;;570194;248;24136;-78
2022/10/10 00:55:41;;;;;;;3.70;2.47;;;5.70;99.90;4.80;101315;;;;570003;248;24151;-76
2022/10/10 00:58:08;;;;;;;2.80;2.33;;;5.70;99.90;4.80;101322;;;;570631;248;24100;-77
2022/10/10 01:00:36;;;;;;;4.13;2.13;;;5.70;99.90;4.80;101319;;;;569995;248;24098;-79
2022/10/10 01:03:07;;;;;;;6.73;2.60;;;5.70;99.90;4.80;101325;;;;570549;248;24082;-80
2022/10/10 01:05:32;;;;;;;4.87;2.53;;;5.70;99.90;4.80;101312;;;;567782;248;24124;-77
2022/10/10 01:08:00;;;;;;;5.27;2.27;;;5.70;99.90;4.80;101314;;;;572720;248;24168;-77
2022/10/10 01:10:28;;;;;;;6.40;2.40;;;5.70;99.90;4.70;101318;;;;578729;247;24078;-78
2022/10/10 01:13:36;;;;;;;3.90;2.33;;;5.70;99.90;4.70;101308;;;;570056;248;24083;-78
2022/10/10 01:16:19;;;;;;;3.20;2.20;;;5.70;99.90;4.70;101311;;;;571938;248;24139;-77
2022/10/10 01:18:53;;;;;;;5.27;2.40;;;5.60;99.90;4.70;101308;;;;569727;248;24102;-76
2022/10/10 01:21:36;;;;;;;4.40;2.40;;;5.60;99.90;4.70;101305;;;;575324;248;24106;-75
2022/10/10 01:24:25;;;;;;;5.20;2.20;;;5.60;99.90;4.70;101298;;;;578518;248;24166;-76
2022/10/10 01:27:05;;;;;;;5.90;2.10;;;5.60;99.90;4.60;101302;;;;578393;247;24131;-77
2022/10/10 01:29:39;;;;;;;7.93;2.70;;;5.50;99.90;4.60;101302;;;;568555;250;24176;-76
2022/10/10 01:32:22;;;;;;;6.23;2.57;;;5.50;99.90;4.60;101293;;;;563777;250;24125;-76
2022/10/10 01:34:58;;;;;;;4.80;2.27;;;5.50;99.90;4.50;101291;;;;564113;250;24180;-76
2022/10/10 01:37:32;;;;;;;6.40;2.80;;;5.50;99.90;4.50;101288;;;;565704;250;24131;-77
2022/10/10 01:40:00;;;;;;;4.43;2.80;;;5.40;99.90;4.50;101287;;;;563627;250;24121;-76
2022/10/10 01:42:46;;;;;;;3.00;2.67;;;5.40;99.90;4.50;101276;;;;568270;250;24113;-76
2022/10/10 01:45:14;;;;;;;5.00;3.17;;;5.40;99.90;4.50;101283;;;;571620;250;24151;-76
2022/10/10 01:47:43;;;;;;;4.10;3.10;;;5.40;99.90;4.50;101282;;;;573136;248;24141;-76
2022/10/10 01:50:11;;;;;;;3.27;2.77;;;5.30;99.90;4.50;101283;;;;564929;250;24124;-75
2022/10/10 01:53:00;;;;;;;5.63;2.90;;;5.30;99.90;4.50;101282;;;;569114;250;24127;-77
2022/10/10 01:55:43;;;;;;;7.93;3.23;;;5.40;99.90;4.50;101275;;;;572085;250;24213;-77
2022/10/10 01:58:38;;;;;;;6.47;3.60;;;5.30;99.90;4.50;101285;;;;564341;250;24185;-76
2022/10/10 02:01:27;;;;;;;7.13;3.83;;;5.30;99.90;4.40;101281;;;;554974;254;24197;-77
2022/10/10 02:03:57;;;;;;;6.70;3.47;;;5.30;99.90;4.40;101277;;;;560085;251;24123;-76
2022/10/10 02:06:29;;;;;;;7.87;3.57;;;5.30;99.90;4.40;101281;;;;574315;243;24075;-77
2022/10/10 02:09:09;;;;;;;7.07;3.57;;;5.30;99.90;4.40;101288;;;;580918;243;24058;-76
2022/10/10 02:11:36;;;;;;;6.00;3.90;;;5.30;99.90;4.50;101293;;;;578750;243;24084;-77
2022/10/10 02:14:14;;;;;;;5.53;3.60;;;5.40;99.90;4.50;101298;;;;590391;239;24076;-75
2022/10/10 02:16:42;;;;;;;5.00;3.83;;;5.40;99.90;4.60;101290;;;;576524;243;24067;-78
2022/10/10 02:19:11;;;;;;;8.30;4.00;;;5.40;99.90;4.60;101293;;;;581236;243;24129;-77
2022/10/10 02:21:38;;;;;;;5.97;4.00;;;5.40;99.90;4.60;101298;;;;583265;243;24108;-78
2022/10/10 02:24:07;;;;;;;4.80;3.67;;;5.40;99.90;4.60;101290;;;;581104;243;24047;-76
2022/10/10 02:26:35;;;;;;;5.10;3.60;;;5.40;99.90;4.50;101285;;;;582913;242;24055;-76
2022/10/10 02:29:03;;;;;;;5.63;3.30;;;5.40;99.90;4.40;101289;;;;581272;243;24101;-75
2022/10/10 02:31:34;;;;;;;3.90;3.60;;;5.40;99.90;4.40;101284;;;;590367;242;24072;-76
2022/10/10 02:34:16;;;;;;;5.10;3.87;;;5.30;99.90;4.30;101287;;;;581682;241;25084;-79
2022/10/10 02:36:50;;;;;;;6.67;3.90;;;5.20;99.90;4.20;101291;;;;590848;243;24074;-77
2022/10/10 02:39:18;;;;;;;4.67;3.30;;;5.10;99.90;4.10;101288;;;;583441;243;24073;-78
2022/10/10 02:41:50;;;;;;;5.77;3.90;;;5.00;99.90;4.10;101291;;;;583415;243;24070;-77
2022/10/10 02:44:14;;;;;;;7.40;3.30;;;5.00;99.90;4.00;101291;;;;590240;243;24161;-76
2022/10/10 02:46:42;;;;;;;6.13;4.00;;;4.90;99.90;4.00;101280;;;;583559;243;24045;-77
2022/10/10 02:49:10;;;;;;;5.77;3.90;;;4.90;99.90;3.90;101286;;;;590694;243;24082;-77
2022/10/10 02:51:38;;;;;;;6.60;3.53;;;4.80;99.90;3.90;101283;;;;590565;243;24110;-77
2022/10/10 02:54:06;;;;;;;8.33;4.73;;;4.80;99.90;3.90;101288;;;;590613;243;24134;-78
2022/10/10 02:56:38;;;;;;;4.53;4.00;;;4.70;99.90;3.90;101280;;;;590582;243;24114;-80
2022/10/10 02:59:02;;;;;;;6.60;4.30;;;4.70;99.90;3.90;101280;;;;591276;241;24081;-80
2022/10/10 03:01:30;;;;;;;5.37;4.20;;;4.70;99.90;3.90;101282;;;;591911;242;24061;-81
2022/10/10 03:03:58;;;;;;;8.17;4.70;;;4.70;99.90;3.80;101276;;;;591540;242;24051;-81
2022/10/10 03:06:26;;;;;;;6.43;5.00;;;4.70;99.90;3.80;101278;;;;591461;242;24086;-78
2022/10/10 03:08:57;;;;;;;9.67;5.30;;;4.70;99.90;3.80;101280;;;;591230;243;24069;-80
2022/10/10 03:11:22;;;;;;;9.57;5.47;;;4.70;99.90;3.80;101277;;;;577162;243;25100;-80
2022/10/10 03:13:50;;;;;;;10.57;5.10;;;4.70;99.90;3.80;101269;;;;590857;239;24072;-80
2022/10/10 03:16:17;;;;;;;12.83;5.30;;;4.70;99.90;3.80;101274;;;;591181;243;24062;-80
2022/10/10 03:18:45;;;;;;;9.17;5.13;;;4.70;99.90;3.80;101273;;;;590907;243;24062;-80
2022/10/10 03:21:13;;;;;;;6.67;4.87;;;4.70;99.90;3.90;101273;;;;590913;243;24071;-79
2022/10/10 03:23:41;;;;;;;6.30;4.97;;;4.70;99.90;3.90;101272;;;;590906;243;24057;-79
2022/10/10 03:26:12;;;;;;;12.20;5.67;;;4.80;99.90;3.80;101265;;;;590875;243;24056;-78
2022/10/10 03:28:37;;;;;;;10.30;5.77;;;4.70;99.90;3.80;101264;;;;576583;243;24067;-78
2022/10/10 03:31:09;;;;;;;10.67;5.87;;;4.70;99.90;3.80;101263;;;;579024;243;24084;-80
2022/10/10 03:33:33;;;;;;;9.40;6.23;;;4.70;99.90;3.80;101272;;;;581203;243;24050;-80
2022/10/10 03:36:01;;;;;;;11.23;6.30;;;4.70;99.90;3.80;101263;;;;590119;243;24051;-81
2022/10/10 03:38:29;;;;;;;9.50;6.83;;;4.70;99.90;3.80;101266;;;;590253;243;24046;-79
2022/10/10 03:40:59;;;;;;;13.90;7.60;;;4.70;99.90;3.80;101264;;;;590194;243;24089;-80
2022/10/10 03:43:24;;;;;;;15.20;8.23;;;4.70;99.90;3.80;101262;;;;589986;243;24170;-79
2022/10/10 03:45:52;;;;;;;12.77;8.73;;;4.70;99.90;3.80;101261;;;;590179;243;24072;-80
2022/10/10 03:48:20;;;;;;;14.27;8.97;;;4.70;99.90;3.90;101264;;;;590652;243;24055;-78
2022/10/10 03:50:48;;;;;;;12.67;9.30;;;4.70;99.90;3.90;101265;;;;590303;243;24077;-81
2022/10/10 03:53:17;;;;;;;18.43;9.37;;;4.80;99.90;3.90;101267;;;;580274;243;24066;-77
2022/10/10 03:55:45;;;;;;;13.83;9.17;;;4.80;99.90;3.90;101263;;;;590260;243;24097;-77
2022/10/10 03:58:16;;;;;;;11.87;8.77;;;4.80;99.90;3.90;101261;;;;590032;243;24098;-80
2022/10/10 04:00:40;;;;;;;14.87;8.73;;;4.70;99.90;3.90;101264;;;;576070;243;24061;-78
2022/10/10 04:03:09;;;;;;;14.27;9.70;;;4.70;99.90;3.80;101253;;;;590206;243;24045;-80
2022/10/10 04:05:41;;;;;;;10.93;8.73;;;4.70;99.90;3.80;101256;;;;590072;243;24054;-79
2022/10/10 04:08:05;;;;;;;14.20;9.27;;;4.70;99.90;3.80;101252;;;;589853;243;24101;-78
2022/10/10 04:10:36;;;;;;;13.20;9.37;;;4.60;99.90;3.70;101252;;;;590824;241;24097;-78
2022/10/10 04:13:01;;;;;;;15.40;9.53;;;4.60;99.90;3.60;101252;;;;577124;242;24094;-76
2022/10/10 04:15:30;;;;;;;17.10;9.17;;;4.50;99.90;3.60;101267;;;;577066;242;24056;-78
2022/10/10 04:17:57;;;;;;;16.80;9.37;;;4.50;99.90;3.60;101266;;;;577298;242;24073;-78
2022/10/10 04:20:25;;;;;;;15.50;8.47;;;4.40;99.90;3.50;101275;;;;591101;243;24050;-77
2022/10/10 04:22:52;;;;;;;15.13;7.87;;;4.40;99.90;3.50;101270;;;;579359;243;24055;-76
2022/10/10 04:25:20;;;;;;;11.47;8.13;;;4.30;99.90;3.40;101260;;;;591011;243;24055;-77
2022/10/10 04:27:48;;;;;;;12.70;8.27;;;4.30;99.90;3.40;101261;;;;590977;243;24050;-78
2022/10/10 04:30:20;;;;;;;9.73;7.77;;;4.20;99.90;3.30;101261;;;;590755;243;24072;-77
2022/10/10 04:32:45;;;;;;;15.47;8.53;;;4.10;99.90;3.30;101261;;;;576329;243;24084;-77
2022/10/10 04:35:13;;;;;;;16.33;8.13;;;4.10;99.90;3.20;101261;;;;590267;243;24067;-77
2022/10/10 04:37:41;;;;;;;12.53;8.93;;;4.10;99.90;3.10;101264;;;;590386;243;24114;-77
2022/10/10 04:40:09;;;;;;;16.03;10.50;;;4.00;99.90;3.10;101257;;;;590260;243;24070;-77
2022/10/10 04:42:37;;;;;;;20.03;10.17;;;3.90;99.90;3.10;101266;;;;590485;243;24060;-77
2022/10/10 04:45:06;;;;;;;21.37;11.87;;;3.90;99.90;3.00;101255;;;;590328;243;24136;-77
2022/10/10 04:47:35;;;;;;;17.03;11.53;;;3.80;99.90;3.00;101255;;;;590263;243;24112;-77
2022/10/10 04:50:03;;;;;;;18.13;12.13;;;3.80;99.90;3.00;101251;;;;576279;243;24035;-77
2022/10/10 04:52:30;;;;;;;20.20;12.87;;;3.80;99.90;2.90;101247;;;;576248;243;24061;-77
2022/10/10 04:54:58;;;;;;;20.70;13.17;;;3.80;99.90;2.90;101243;;;;590162;243;24046;-77
2022/10/10 04:57:26;;;;;;;17.23;13.17;;;3.70;99.90;2.80;101235;;;;590079;243;24102;-76
2022/10/10 04:59:54;;;;;;;19.00;14.53;;;3.70;99.90;2.80;101238;;;;590177;243;24045;-77
2022/10/10 05:02:23;;;;;;;20.27;15.23;;;3.70;99.90;2.80;101229;;;;590058;243;24053;-77
2022/10/10 05:04:51;;;;;;;24.63;15.87;;;3.60;99.90;2.80;101225;;;;589935;243;24039;-77
2022/10/10 05:07:19;;;;;;;25.50;17.13;;;3.60;99.90;2.80;101228;;;;590199;243;24057;-77
2022/10/10 05:09:47;;;;;;;23.97;17.63;;;3.60;99.90;2.70;101235;;;;580201;243;24066;-76
2022/10/10 05:12:15;;;;;;;26.50;17.80;;;3.60;99.90;2.70;101238;;;;590204;243;24104;-76
2022/10/10 05:14:42;;;;;;;25.60;18.07;;;3.60;99.90;2.70;101226;;;;576054;243;24086;-77
2022/10/10 05:17:11;;;;;;;30.03;19.00;;;3.60;99.90;2.70;101214;;;;590203;243;24097;-77
2022/10/10 05:19:39;;;;;;;25.13;17.50;;;3.50;99.90;2.70;101220;;;;590479;243;24070;-77
2022/10/10 05:22:07;;;;;;;31.47;20.33;;;3.60;99.90;2.80;101226;;;;591273;241;24066;-77
2022/10/10 05:24:35;;;;;;;27.87;19.87;;;3.60;99.90;2.80;101216;;;;591736;242;24134;-77
2022/10/10 05:27:03;;;;;;;37.17;20.43;;;3.60;99.90;2.80;101225;;;;591457;242;24050;-77
2022/10/10 05:29:34;;;;;;;38.33;20.90;;;3.60;99.90;2.80;101232;;;;591327;242;24136;-78
2022/10/10 05:31:59;;;;;;;31.20;20.50;;;3.70;99.90;2.90;101221;;;;590945;243;24054;-77
2022/10/10 05:34:26;;;;;;;31.90;21.00;;;3.70;99.90;2.90;101226;;;;590847;243;24111;-78
2022/10/10 05:36:55;;;;;;;35.20;21.70;;;3.80;99.90;3.00;101220;;;;590745;243;24134;-78
2022/10/10 05:39:23;;;;;;;36.90;22.27;;;3.80;99.90;3.00;101217;;;;590556;243;25092;-78
2022/10/10 05:41:51;;;;;;;29.90;22.00;;;3.80;99.90;3.10;101223;;;;576584;243;24098;-77
2022/10/10 05:44:19;;;;;;;37.80;21.60;;;3.90;99.90;3.20;101227;;;;590340;243;24053;-77
2022/10/10 05:46:47;;;;;;;33.77;22.60;;;4.00;99.90;3.20;101226;;;;590572;243;24187;-77
2022/10/10 05:49:15;;;;;;;32.63;22.23;;;4.00;99.90;3.30;101226;;;;590440;243;24126;-76
2022/10/10 05:51:43;;;;;;;35.77;21.80;;;4.20;99.90;3.30;101218;;;;590277;243;24041;-77
2022/10/10 05:54:12;;;;;;;34.37;22.80;;;4.20;99.90;3.40;101219;;;;590433;243;24156;-78
2022/10/10 05:56:40;;;;;;;28.37;22.43;;;4.20;99.90;3.50;101219;;;;590292;243;24125;-77
2022/10/10 05:59:11;;;;;;;34.97;22.93;;;4.30;99.90;3.60;101227;;;;590138;243;24049;-78
2022/10/10 06:01:36;;;;;;;30.93;23.03;;;4.40;99.90;3.70;101219;;;;580084;243;24120;-77
2022/10/10 06:04:04;;;;;;;34.57;24.43;;;4.50;99.90;3.80;101224;;;;581064;243;24057;-79
2022/10/10 06:06:32;;;;;;;42.17;24.73;;;4.60;99.90;3.90;101219;;;;590094;243;24050;-78
2022/10/10 06:09:00;;;;;;;32.00;23.67;;;4.90;99.90;4.00;101214;;;;590027;243;24058;-77
2022/10/10 06:11:29;;;;;;;36.67;22.83;;;5.00;99.90;4.20;101210;;;;590153;243;24083;-78
2022/10/10 06:13:57;;;;;;;38.50;23.67;;;4.90;99.90;4.30;101212;;;;590037;239;24098;-77
2022/10/10 06:16:25;;;;;;;35.33;22.20;;;5.10;99.90;4.40;101201;;;;590254;243;24062;-78
2022/10/10 06:18:56;;;;;;;39.93;21.33;;;5.20;99.90;4.50;101206;;;;590472;243;24106;-78
2022/10/10 06:21:21;;;;;;;38.77;16.83;;;5.30;99.90;4.70;101213;;;;590255;243;24099;-78
2022/10/10 06:23:48;;;;;;;161.43;26.03;;;5.50;99.90;5.30;101217;;;;590689;243;25105;-78
2022/10/10 06:26:17;;;;;;;42.77;18.33;;;7.30;99.90;6.90;101222;;;;576971;243;24065;-77
2022/10/10 06:28:49;;;;;;;46.20;19.30;;;7.30;99.90;9.10;101231;;;;576575;243;24053;-77
2022/10/10 06:31:13;;;;;;;34.90;19.20;;;9.20;99.90;11.10;101230;;;;581100;243;24068;-77
2022/10/10 06:33:44;;;;;;;28.23;18.93;;;11.20;99.90;12.70;101239;;;;591216;241;24099;-78
2022/10/10 06:36:12;;;;;;;29.77;17.57;;;12.90;99.90;14.30;101241;;;;591341;242;24095;-77
2022/10/10 06:38:40;;;;;;;18.30;13.43;;;16.10;99.90;15.90;101246;;;;581910;242;24126;-77
2022/10/10 06:41:09;;;;;;;15.77;12.23;;;17.50;99.90;17.50;101241;;;;576935;242;24070;-77
2022/10/10 06:43:41;;;;;;;15.33;9.90;;;17.50;99.90;18.40;101233;;;;576796;243;24062;-78
2022/10/10 06:46:08;;;;;;;14.63;9.50;;;18.70;99.90;19.30;101225;;;;590359;243;24169;-78
2022/10/10 06:48:34;;;;;;;11.03;9.23;;;20.50;99.90;20.30;101235;;;;590568;243;24090;-79
2022/10/10 06:51:05;;;;;;;15.40;9.60;;;21.40;96.40;21.20;101228;;;;576850;243;24045;-77
2022/10/10 06:53:33;;;;;;;14.73;9.07;;;21.40;96.40;22.00;101222;;;;580693;243;23083;-79
2022/10/10 06:56:01;;;;;;;14.33;8.77;;;22.30;92.80;22.50;101228;;;;581285;243;24063;-79
2022/10/10 06:58:29;;;;;;;10.20;9.07;;;22.90;87.40;23.20;101230;;;;581547;243;24067;-78
2022/10/10 07:00:57;;;;;;;10.40;8.93;;;23.50;82.60;23.70;101229;;;;583857;243;24027;-77
2022/10/10 07:03:25;;;;;;;11.17;9.87;;;24.10;78.10;24.20;101225;;;;581578;243;24109;-78
2022/10/10 07:05:53;;;;;;;10.77;8.70;;;24.70;72.10;24.60;101218;;;;581735;243;24042;-79
2022/10/10 07:08:24;;;;;;;16.13;9.13;;;25.00;69.80;24.50;101222;;;;576297;243;24050;-80
2022/10/10 07:10:49;;;;;;;25.27;10.63;;;25.20;65.90;24.70;101218;;;;581163;243;24142;-79
2022/10/10 07:13:17;;;;;;;20.23;9.17;;;25.20;65.90;24.90;101211;;;;590025;239;24035;-81
2022/10/10 07:15:45;;;;;;;23.60;8.97;;;25.40;64.00;25.60;101219;;;;590546;243;24070;-79
2022/10/10 07:18:14;;;;;;;26.37;10.30;;;26.60;61.70;26.40;101219;;;;576596;243;24031;-80
2022/10/10 07:20:42;;;;;;;19.27;8.97;;;27.40;60.50;27.20;101227;;;;578588;243;23100;-79
2022/10/10 07:23:11;;;;;;;27.87;8.23;;;28.10;57.20;27.90;101222;;;;576243;243;23060;-80
2022/10/10 07:25:40;;;;;;;14.40;8.13;;;28.50;55.40;28.00;101223;;;;578400;243;23100;-77
2022/10/10 07:28:08;;;;;;;12.47;7.97;;;28.70;54.30;28.20;101232;;;;580377;243;23073;-78
2022/10/10 07:30:42;;;;;;;12.30;7.97;;;28.60;54.20;28.60;101226;;;;581043;243;24047;-79
2022/10/10 07:33:10;;;;;;;8.07;6.50;;;29.00;53.50;28.40;101232;;;;581147;243;24043;-79
2022/10/10 07:35:38;;;;;;;8.30;6.07;;;29.00;52.10;28.40;101227;;;;581135;243;23079;-79
2022/10/10 07:38:06;;;;;;;7.77;7.07;;;29.00;51.80;28.40;101232;;;;591178;243;23092;-78
2022/10/10 07:40:34;;;;;;;8.33;6.73;;;28.80;51.40;28.10;101228;;;;591088;243;23086;-79
2022/10/10 07:43:02;;;;;;;7.33;6.50;;;28.80;51.40;28.10;101236;;;;591344;243;24077;-78
2022/10/10 07:45:30;;;;;;;18.67;7.80;;;28.70;51.60;28.20;101234;;;;592198;241;23148;-80
2022/10/10 07:47:59;;;;;;;19.27;8.83;;;28.70;51.10;28.20;101229;;;;592671;242;23103;-80
2022/10/10 07:50:27;;;;;;;10.87;7.10;;;28.70;51.00;28.30;101231;;;;592230;242;24110;-78
2022/10/10 07:52:55;;;;;;;8.37;6.90;;;28.80;51.10;28.40;101227;;;;592316;242;23068;-80
2022/10/10 07:55:29;;;;;;;11.17;6.70;;;29.00;50.30;28.40;101228;;;;592554;242;24118;-80
2022/10/10 07:57:58;;;;;;;7.53;6.70;;;29.00;50.40;28.00;101230;;;;591829;243;23095;-78
2022/10/10 08:00:25;;;;;;;9.33;6.60;;;28.90;50.10;28.10;101234;;;;591567;243;23096;-79
2022/10/10 08:02:53;;;;;;;8.07;6.03;;;28.80;50.80;28.50;101229;;;;591546;243;23075;-78
2022/10/10 08:05:21;;;;;;;7.43;6.53;;;29.20;49.90;28.80;101225;;;;591334;243;24082;-77
2022/10/10 08:07:49;;;;;;;8.23;7.30;;;29.30;49.50;28.50;101223;;;;591331;243;23146;-77
2022/10/10 08:10:17;;;;;;;7.40;6.50;;;29.20;49.30;28.40;101219;;;;591354;243;23072;-77
2022/10/10 08:12:45;;;;;;;7.17;6.13;;;29.20;49.30;28.70;101220;;;;591569;238;23098;-78
2022/10/10 08:15:13;;;;;;;9.70;6.73;;;29.40;49.30;27.90;101210;;;;591337;243;24074;-78
2022/10/10 08:17:42;;;;;;;9.43;6.50;;;28.00;50.70;26.70;101214;;;;591295;243;23093;-77
2022/10/10 08:20:10;;;;;;;8.47;7.03;;;28.00;50.30;26.80;101203;;;;591292;243;23122;-79
2022/10/10 08:22:38;;;;;;;8.33;6.43;;;27.70;51.50;27.20;101195;;;;591583;243;24090;-78
2022/10/10 08:25:06;;;;;;;10.70;6.67;;;27.90;51.80;28.00;101198;;;;591225;243;23090;-79
2022/10/10 08:27:34;;;;;;;7.40;6.47;;;28.50;50.70;28.60;101199;;;;591072;243;23082;-78
2022/10/10 08:30:02;;;;;;;7.70;6.33;;;30.00;49.20;29.50;101193;;;;591044;243;24247;-78
2022/10/10 08:32:30;;;;;;;6.87;6.20;;;30.00;49.20;29.90;101199;;;;590939;243;23094;-77
2022/10/10 08:35:01;;;;;;;8.25;6.80;;;30.60;48.50;29.70;101194;;;;591065;243;23084;-77
2022/10/10 08:37:26;;;;;;;8.03;7.13;;;30.70;47.50;29.70;101185;;;;590717;243;24066;-77
2022/10/10 08:39:55;;;;;;;7.53;6.82;;;30.80;47.70;29.70;101180;;;;591091;243;23084;-77
2022/10/10 08:42:31;;;;;;;7.75;6.25;;;30.80;47.70;30.00;101182;;;;591088;243;23101;-78
2022/10/10 08:45:03;;;;;;;10.48;6.57;;;31.50;47.20;30.40;101180;;;;587257;243;23080;-79
2022/10/10 08:47:34;;;;;;;7.00;6.25;;;31.50;47.20;30.40;101174;;;;590619;243;23124;-78
2022/10/10 08:50:01;;;;;;;10.27;6.20;;;31.60;46.70;30.10;101173;;;;588312;243;24173;-78
2022/10/10 08:52:41;;;;;;;9.45;6.80;;;31.50;46.70;30.30;101173;;;;579239;248;23160;-78
2022/10/10 08:55:17;;;;;;;38.58;9.85;;;31.60;46.90;30.70;101171;;;;568875;252;23140;-77
2022/10/10 08:58:01;;;;;;;32.42;9.95;;;31.90;47.00;30.70;101160;;;;574448;248;23126;-77
2022/10/10 09:00:28;;;;;;;23.60;7.55;;;32.00;45.80;30.50;101154;;;;574018;250;23127;-78
2022/10/10 09:02:59;;;;;;;24.63;8.18;;;31.80;46.10;30.50;101154;;;;573961;250;23139;-77
2022/10/10 09:05:40;;;;;;;45.10;10.00;;;31.70;46.00;30.40;101149;;;;573815;250;23151;-80
2022/10/10 09:08:23;;;;;;;13.62;6.30;;;31.80;45.80;30.00;101148;;;;574164;250;23138;-81
2022/10/10 09:11:21;;;;;;;7.40;5.57;;;30.90;46.70;29.50;101152;;;;572846;250;23192;-80
2022/10/10 09:14:26;;;;;;;9.35;5.50;;;30.90;46.70;28.00;101143;;;;573056;246;24173;-80
2022/10/10 09:17:16;;;;;;;5.63;4.77;;;28.30;49.60;26.30;101140;;;;559751;254;23161;-81
2022/10/10 09:19:59;;;;;;;8.20;5.00;;;28.20;49.50;24.20;101133;;;;589944;243;24068;-83
2022/10/10 09:22:27;;;;;;;5.53;5.03;;;24.70;54.80;22.70;101126;;;;591187;243;23075;-81
2022/10/10 09:25:07;;;;;;;8.07;4.73;;;24.70;54.80;21.70;101122;;;;591118;243;24054;-81
2022/10/10 09:27:35;;;;;;;8.70;5.40;;;23.40;57.20;21.20;101119;;;;591264;243;24108;-81
2022/10/10 09:30:04;;;;;;;8.60;4.33;;;22.00;61.10;20.70;101119;;;;591232;243;23121;-81
2022/10/10 09:32:37;;;;;;;19.37;6.80;;;21.90;61.00;20.30;101118;;;;590485;243;24090;-80
2022/10/10 09:35:20;;;;;;;20.70;5.90;;;21.50;62.50;20.00;101106;;;;590469;243;24120;-81
2022/10/10 09:37:57;;;;;;;11.53;4.63;;;21.20;63.80;20.10;101107;;;;591019;243;24079;-80
2022/10/10 09:40:34;;;;;;;15.93;4.70;;;21.30;64.00;20.90;101099;;;;591055;242;24132;-81
2022/10/10 09:43:19;;;;;;;9.03;5.00;;;21.80;64.40;22.10;101088;;;;590977;243;25175;-81
2022/10/10 09:45:56;;;;;;;19.60;5.23;;;23.00;61.30;22.60;101086;;;;591262;243;23093;-82
2022/10/10 09:48:20;;;;;;;7.13;4.67;;;23.70;58.80;22.70;101080;;;;590992;243;24125;-81
2022/10/10 09:50:48;;;;;;;21.00;5.07;;;24.10;57.50;22.50;101080;;;;590806;243;24109;-79
2022/10/10 09:53:16;;;;;;;7.33;4.30;;;24.10;57.10;22.30;101065;;;;590919;243;24114;-79
2022/10/10 09:55:44;;;;;;;5.63;4.10;;;23.90;57.90;22.50;101072;;;;590896;243;24133;-80
2022/10/10 09:58:15;;;;;;;6.07;4.17;;;24.00;57.80;22.70;101078;;;;590862;243;24183;-80
2022/10/10 10:00:46;;;;;;;5.03;4.10;;;24.10;57.90;22.70;101064;;;;590583;243;24121;-78
2022/10/10 10:03:19;;;;;;;5.33;4.13;;;24.10;57.60;22.60;101061;;;;590796;243;24109;-80
2022/10/10 10:05:56;;;;;;;4.87;4.17;;;24.00;57.20;22.20;101061;;;;590845;243;24075;-79
2022/10/10 10:08:30;;;;;;;7.07;4.20;;;23.40;58.40;21.70;101048;;;;591217;241;24104;-79
2022/10/10 10:10:58;;;;;;;7.13;4.10;;;23.40;58.40;21.30;101050;;;;592135;242;24062;-79
2022/10/10 10:13:31;;;;;;;6.33;4.10;;;23.00;59.00;20.40;101044;;;;591674;238;24096;-80
2022/10/10 10:16:05;;;;;;;8.70;4.17;;;22.10;60.60;19.50;101046;;;;591693;242;24074;-79
2022/10/10 10:18:41;;;;;;;4.63;3.53;;;21.10;62.20;18.30;101036;;;;591047;243;23118;-79
2022/10/10 10:21:09;;;;;;;5.70;3.37;;;19.90;64.60;17.10;101035;;;;591127;243;24110;-80
2022/10/10 10:23:40;;;;;;;8.80;3.03;;;18.70;68.10;16.40;101029;;;;591913;243;24113;-78
2022/10/10 10:26:29;;;;;;;7.20;3.93;;;16.90;74.30;15.90;101010;;;;591434;243;24090;-77
2022/10/10 10:29:00;;;;;;;6.67;3.70;;;16.90;74.20;15.50;101011;;;;591285;243;24081;-80
2022/10/10 10:31:37;;;;;;;4.63;3.60;;;16.40;76.70;15.10;101003;;;;590870;243;24090;-80
2022/10/10 10:34:16;;;;;;;13.67;3.10;;;15.90;77.70;14.70;101001;;;;591195;243;24079;-81
2022/10/10 10:37:20;;;;;;;4.80;3.43;;;15.40;79.30;14.50;100999;;;;591288;243;24070;-78
2022/10/10 10:39:53;;;;;;;9.60;3.50;;;15.10;81.40;14.10;100990;;;;591318;243;24051;-80
2022/10/10 10:42:47;;;;;;;8.83;3.63;;;14.80;82.60;13.80;100986;;;;591107;243;24055;-79
2022/10/10 10:45:15;;;;;;;9.07;3.53;;;14.50;84.00;13.40;100977;;;;590430;243;24081;-77
2022/10/10 10:48:10;;;;;;;9.37;4.00;;;14.10;86.10;13.20;100967;;;;590660;243;24095;-79
2022/10/10 10:50:44;;;;;;;14.60;3.53;;;13.80;87.90;13.00;100964;;;;590551;243;24067;-77
2022/10/10 10:53:24;;;;;;;5.17;3.23;;;13.70;90.00;12.90;100957;;;;590553;243;24085;-78
2022/10/10 10:56:05;;;;;;;5.87;3.03;;;13.40;91.40;12.80;100953;;;;590146;243;24086;-76
2022/10/10 10:58:50;;;;;;;7.03;3.70;;;13.40;91.40;12.70;100941;;;;590776;243;24109;-78
2022/10/10 11:01:24;;;;;;;4.80;3.17;;;13.30;92.00;12.70;100928;;;;581257;243;24090;-76
2022/10/10 11:04:03;;;;;;;10.47;3.50;;;13.30;92.80;12.70;100925;;;;592076;242;24106;-76
2022/10/10 11:07:01;;;;;;;5.50;2.53;;;13.30;93.80;12.70;100932;;;;590849;243;24050;-76
2022/10/10 11:09:41;;;;;;;3.57;3.00;;;13.20;94.00;12.60;100919;;;;590774;243;24081;-77
2022/10/10 11:12:46;;;;;;;3.43;2.70;;;13.20;94.30;12.60;100911;;;;590849;243;24113;-77
2022/10/10 11:15:29;;;;;;;9.93;3.03;;;13.10;95.00;12.60;100906;;;;590479;243;24086;-77
2022/10/10 11:18:06;;;;;;;8.23;3.27;;;13.20;96.20;12.60;100897;;;;590763;243;24070;-77
2022/10/10 11:20:36;;;;;;;5.00;2.90;;;13.20;97.40;12.60;100891;;;;591584;241;24141;-77
2022/10/10 11:23:04;;;;;;;5.30;3.50;;;13.20;98.20;12.70;100889;;;;592266;242;24093;-77
2022/10/10 11:25:59;;;;;;;4.20;3.00;;;13.20;98.50;12.60;100901;;;;591155;242;24040;-77
2022/10/10 11:28:30;;;;;;;2.43;2.23;;;13.20;98.90;12.60;100891;;;;591480;243;24075;-76
2022/10/10 11:31:01;;;;;;;3.60;2.43;;;13.20;99.90;12.60;100874;;;;591184;243;24067;-76
2022/10/10 11:33:38;;;;;;;4.23;2.60;;;13.20;99.90;12.60;100864;;;;591243;243;24064;-76